PRIVATE WETTERSTATION BILLIGHEIM-ALLFELD                       ZURCK
Wetterdaten: Montag, 06.11.2017
Datum Zeit Temp. A. Temp. A. min Temp. A. max Feuchte A. Luftdruck Regen Wind Richtung Richtung Sonnenschein ET Solar Taupunkt Windchill Windben Empfang
06.11.2017 00:00 5,0 C 5,0 C 5,1 C 90 % 1015,4 hPa 0,0 l/m 0,0 km/h (0 Bft) N 0 0 min 0,000 mm 0 W/m 3,5 C 5,0 C 0,0 km/h (0 Bft) 100 %
06.11.2017 00:10 5,0 C 5,0 C 5,1 C 90 % 1015,4 hPa 0,0 l/m 0,0 km/h (0 Bft) N 0 0 min 0,000 mm 0 W/m 3,5 C 5,0 C 0,0 km/h (0 Bft) 100 %
06.11.2017 00:20 4,9 C 4,9 C 5,0 C 90 % 1015,6 hPa 0,0 l/m 0,0 km/h (0 Bft) N 0 0 min 0,000 mm 0 W/m 3,4 C 4,9 C 0,0 km/h (0 Bft) 100 %
06.11.2017 00:30 4,9 C 4,9 C 4,9 C 90 % 1015,6 hPa 0,0 l/m 0,0 km/h (0 Bft) N 0 0 min 0,000 mm 0 W/m 3,4 C 4,9 C 0,0 km/h (0 Bft) 100 %
06.11.2017 00:40 4,8 C 4,8 C 4,9 C 90 % 1015,7 hPa 0,0 l/m 0,0 km/h (0 Bft) N 0 0 min 0,000 mm 0 W/m 3,3 C 4,8 C 0,0 km/h (0 Bft) 88 %
06.11.2017 00:50 4,8 C 4,8 C 4,8 C 90 % 1015,7 hPa 0,0 l/m 0,0 km/h (0 Bft) W-NW 292 0 min 0,000 mm 0 W/m 3,3 C 4,8 C 3,2 km/h (1 Bft) 100 %
06.11.2017 01:00 4,8 C 4,8 C 4,8 C 90 % 1015,8 hPa 0,0 l/m 0,0 km/h (0 Bft) N 0 0 min 0,000 mm 0 W/m 3,3 C 4,8 C 0,0 km/h (0 Bft) 100 %
06.11.2017 01:10 4,7 C 4,7 C 4,8 C 90 % 1015,9 hPa 0,0 l/m 0,0 km/h (0 Bft) W-NW 292 0 min 0,000 mm 0 W/m 3,2 C 4,7 C 3,2 km/h (1 Bft) 100 %
06.11.2017 01:20 4,6 C 4,6 C 4,7 C 90 % 1016,0 hPa 0,0 l/m 0,0 km/h (0 Bft) N 0 0 min 0,000 mm 0 W/m 3,1 C 4,6 C 0,0 km/h (0 Bft) 100 %
06.11.2017 01:30 4,6 C 4,6 C 4,7 C 90 % 1016,0 hPa 0,0 l/m 0,0 km/h (0 Bft) N 0 0 min 0,000 mm 0 W/m 3,1 C 4,6 C 0,0 km/h (0 Bft) 100 %
06.11.2017 01:40 4,6 C 4,6 C 4,6 C 90 % 1016,1 hPa 0,0 l/m 1,6 km/h (1 Bft) W-NW 292 0 min 0,000 mm 0 W/m 3,1 C 4,6 C 4,8 km/h (1 Bft) 100 %
06.11.2017 01:50 4,5 C 4,5 C 4,6 C 90 % 1016,2 hPa 0,0 l/m 1,6 km/h (1 Bft) W-NW 292 0 min 0,000 mm 0 W/m 3,0 C 4,5 C 4,8 km/h (1 Bft) 100 %
06.11.2017 02:00 4,4 C 4,4 C 4,5 C 90 % 1016,2 hPa 0,0 l/m 0,0 km/h (0 Bft) NW 315 0 min 0,000 mm 0 W/m 2,9 C 4,4 C 3,2 km/h (1 Bft) 100 %
06.11.2017 02:10 4,3 C 4,3 C 4,4 C 90 % 1016,4 hPa 0,0 l/m 0,0 km/h (0 Bft) N 0 0 min 0,000 mm 0 W/m 2,8 C 4,3 C 0,0 km/h (0 Bft) 100 %
06.11.2017 02:20 4,2 C 4,2 C 4,3 C 90 % 1016,5 hPa 0,0 l/m 0,0 km/h (0 Bft) N 0 0 min 0,000 mm 0 W/m 2,7 C 4,2 C 0,0 km/h (0 Bft) 100 %
06.11.2017 02:30 4,2 C 4,2 C 4,2 C 90 % 1016,7 hPa 0,0 l/m 0,0 km/h (0 Bft) N 0 0 min 0,000 mm 0 W/m 2,7 C 4,2 C 0,0 km/h (0 Bft) 100 %
06.11.2017 02:40 4,2 C 4,2 C 4,2 C 90 % 1016,7 hPa 0,0 l/m 1,6 km/h (1 Bft) NW 315 0 min 0,000 mm 0 W/m 2,7 C 4,2 C 4,8 km/h (1 Bft) 91 %
06.11.2017 02:50 4,2 C 4,2 C 4,2 C 90 % 1016,8 hPa 0,0 l/m 1,6 km/h (1 Bft) NW 315 0 min 0,000 mm 0 W/m 2,7 C 4,2 C 4,8 km/h (1 Bft) 100 %
06.11.2017 03:00 4,2 C 4,2 C 4,2 C 90 % 1017,0 hPa 0,0 l/m 0,0 km/h (0 Bft) NW 315 0 min 0,000 mm 0 W/m 2,7 C 4,2 C 3,2 km/h (1 Bft) 100 %
06.11.2017 03:10 4,1 C 4,1 C 4,2 C 90 % 1017,1 hPa 0,0 l/m 0,0 km/h (0 Bft) N 0 0 min 0,000 mm 0 W/m 2,6 C 4,1 C 0,0 km/h (0 Bft) 100 %
06.11.2017 03:20 4,1 C 4,1 C 4,1 C 90 % 1017,1 hPa 0,0 l/m 1,6 km/h (1 Bft) NW 315 0 min 0,000 mm 0 W/m 2,6 C 4,1 C 6,4 km/h (2 Bft) 100 %
06.11.2017 03:30 4,1 C 4,1 C 4,1 C 90 % 1017,2 hPa 0,0 l/m 0,0 km/h (0 Bft) N-NW 337 0 min 0,000 mm 0 W/m 2,6 C 4,1 C 4,8 km/h (1 Bft) 100 %
06.11.2017 03:40 4,1 C 4,1 C 4,1 C 90 % 1017,2 hPa 0,0 l/m 0,0 km/h (0 Bft) N 0 0 min 0,000 mm 0 W/m 2,6 C 4,1 C 0,0 km/h (0 Bft) 100 %
06.11.2017 03:50 4,0 C 4,0 C 4,1 C 90 % 1017,2 hPa 0,0 l/m 0,0 km/h (0 Bft) N 0 0 min 0,000 mm 0 W/m 2,5 C 4,0 C 0,0 km/h (0 Bft) 100 %
06.11.2017 04:00 3,9 C 3,9 C 4,0 C 91 % 1017,3 hPa 0,0 l/m 0,0 km/h (0 Bft) N 0 0 min 0,000 mm 0 W/m 2,6 C 3,9 C 0,0 km/h (0 Bft) 100 %
06.11.2017 04:10 3,8 C 3,8 C 3,9 C 90 % 1017,3 hPa 0,0 l/m 0,0 km/h (0 Bft) N 0 0 min 0,000 mm 0 W/m 2,3 C 3,8 C 0,0 km/h (0 Bft) 100 %
06.11.2017 04:20 3,8 C 3,8 C 3,9 C 90 % 1017,6 hPa 0,0 l/m 0,0 km/h (0 Bft) N 0 0 min 0,000 mm 0 W/m 2,3 C 3,8 C 0,0 km/h (0 Bft) 99 %
06.11.2017 04:30 3,8 C 3,8 C 3,8 C 90 % 1017,5 hPa 0,0 l/m 0,0 km/h (0 Bft) N 0 0 min 0,000 mm 0 W/m 2,3 C 3,8 C 0,0 km/h (0 Bft) 89 %
06.11.2017 04:40 3,7 C 3,7 C 3,8 C 90 % 1017,6 hPa 0,0 l/m 0,0 km/h (0 Bft) N 0 0 min 0,000 mm 0 W/m 2,2 C 3,7 C 0,0 km/h (0 Bft) 100 %
06.11.2017 04:50 3,6 C 3,6 C 3,7 C 91 % 1017,8 hPa 0,0 l/m 0,0 km/h (0 Bft) N 0 0 min 0,000 mm 0 W/m 2,3 C 3,6 C 0,0 km/h (0 Bft) 100 %
06.11.2017 05:00 3,5 C 3,5 C 3,6 C 91 % 1018,0 hPa 0,0 l/m 0,0 km/h (0 Bft) N 0 0 min 0,000 mm 0 W/m 2,2 C 3,5 C 0,0 km/h (0 Bft) 100 %
06.11.2017 05:10 3,4 C 3,4 C 3,5 C 91 % 1018,0 hPa 0,0 l/m 0,0 km/h (0 Bft) N 0 0 min 0,000 mm 0 W/m 2,1 C 3,4 C 0,0 km/h (0 Bft) 100 %
06.11.2017 05:20 3,2 C 3,2 C 3,4 C 90 % 1018,2 hPa 0,0 l/m 0,0 km/h (0 Bft) N 0 0 min 0,000 mm 0 W/m 1,7 C 3,2 C 0,0 km/h (0 Bft) 100 %
06.11.2017 05:30 3,0 C 3,0 C 3,2 C 90 % 1018,2 hPa 0,0 l/m 0,0 km/h (0 Bft) N 0 0 min 0,000 mm 0 W/m 1,5 C 3,0 C 0,0 km/h (0 Bft) 99 %
06.11.2017 05:40 2,9 C 2,9 C 3,0 C 91 % 1018,3 hPa 0,0 l/m 0,0 km/h (0 Bft) N 0 0 min 0,000 mm 0 W/m 1,6 C 2,9 C 0,0 km/h (0 Bft) 100 %
06.11.2017 05:50 2,8 C 2,8 C 2,9 C 91 % 1018,4 hPa 0,0 l/m 0,0 km/h (0 Bft) N 0 0 min 0,000 mm 0 W/m 1,5 C 2,8 C 0,0 km/h (0 Bft) 100 %
06.11.2017 06:00 2,7 C 2,7 C 2,8 C 90 % 1018,5 hPa 0,0 l/m 0,0 km/h (0 Bft) N 0 0 min 0,000 mm 0 W/m 1,2 C 2,7 C 0,0 km/h (0 Bft) 100 %
06.11.2017 06:10 2,6 C 2,6 C 2,7 C 91 % 1018,6 hPa 0,0 l/m 0,0 km/h (0 Bft) N 0 0 min 0,000 mm 0 W/m 1,3 C 2,6 C 0,0 km/h (0 Bft) 100 %
06.11.2017 06:20 2,5 C 2,5 C 2,6 C 91 % 1018,6 hPa 0,0 l/m 0,0 km/h (0 Bft) N 0 0 min 0,000 mm 0 W/m 1,2 C 2,5 C 0,0 km/h (0 Bft) 100 %
06.11.2017 06:30 2,5 C 2,5 C 2,5 C 91 % 1018,7 hPa 0,0 l/m 0,0 km/h (0 Bft) N 0 0 min 0,000 mm 0 W/m 1,2 C 2,5 C 0,0 km/h (0 Bft) 100 %
06.11.2017 06:40 2,4 C 2,4 C 2,5 C 90 % 1018,7 hPa 0,0 l/m 0,0 km/h (0 Bft) N 0 0 min 0,000 mm 0 W/m 0,9 C 2,4 C 0,0 km/h (0 Bft) 100 %
06.11.2017 06:50 2,4 C 2,4 C 2,5 C 90 % 1019,0 hPa 0,0 l/m 0,0 km/h (0 Bft) N 0 0 min 0,000 mm 0 W/m 0,9 C 2,4 C 0,0 km/h (0 Bft) 100 %
06.11.2017 07:00 2,3 C 2,3 C 2,4 C 91 % 1019,1 hPa 0,0 l/m 0,0 km/h (0 Bft) N 0 0 min 0,000 mm 0 W/m 1,0 C 2,3 C 0,0 km/h (0 Bft) 100 %
06.11.2017 07:10 2,2 C 2,2 C 2,3 C 91 % 1019,3 hPa 0,0 l/m 0,0 km/h (0 Bft) N 0 0 min 0,000 mm 0 W/m 0,9 C 2,2 C 0,0 km/h (0 Bft) 100 %
06.11.2017 07:20 2,1 C 2,1 C 2,2 C 90 % 1019,2 hPa 0,0 l/m 0,0 km/h (0 Bft) N 0 0 min 0,000 mm 0 W/m 0,6 C 2,1 C 0,0 km/h (0 Bft) 100 %
06.11.2017 07:30 2,0 C 2,0 C 2,1 C 91 % 1019,3 hPa 0,0 l/m 0,0 km/h (0 Bft) N 0 0 min 0,000 mm 9 W/m 0,7 C 2,0 C 0,0 km/h (0 Bft) 100 %
06.11.2017 07:40 2,1 C 2,0 C 2,1 C 91 % 1019,5 hPa 0,0 l/m 0,0 km/h (0 Bft) N 0 0 min 0,000 mm 16 W/m 0,8 C 2,1 C 0,0 km/h (0 Bft) 100 %
06.11.2017 07:50 2,1 C 2,0 C 2,1 C 91 % 1019,6 hPa 0,0 l/m 0,0 km/h (0 Bft) N 0 0 min 0,000 mm 28 W/m 0,8 C 2,1 C 0,0 km/h (0 Bft) 90 %
06.11.2017 08:00 2,1 C 2,1 C 2,1 C 91 % 1019,6 hPa 0,0 l/m 0,0 km/h (0 Bft) N 0 0 min 0,000 mm 28 W/m 0,8 C 2,1 C 0,0 km/h (0 Bft) 100 %
06.11.2017 08:10 2,1 C 2,1 C 2,1 C 91 % 1019,8 hPa 0,0 l/m 0,0 km/h (0 Bft) N 0 0 min 0,000 mm 23 W/m 0,8 C 2,1 C 0,0 km/h (0 Bft) 100 %
06.11.2017 08:20 2,1 C 2,1 C 2,1 C 91 % 1019,9 hPa 0,0 l/m 0,0 km/h (0 Bft) N-NW 337 0 min 0,000 mm 25 W/m 0,8 C 2,1 C 4,8 km/h (1 Bft) 100 %
06.11.2017 08:30 2,1 C 2,1 C 2,1 C 91 % 1020,2 hPa 0,0 l/m 0,0 km/h (0 Bft) N 0 0 min 0,000 mm 28 W/m 0,8 C 2,1 C 0,0 km/h (0 Bft) 100 %
06.11.2017 08:40 2,1 C 2,1 C 2,1 C 91 % 1020,1 hPa 0,0 l/m 0,0 km/h (0 Bft) N 0 0 min 0,000 mm 33 W/m 0,8 C 2,1 C 0,0 km/h (0 Bft) 100 %
06.11.2017 08:50 2,1 C 2,1 C 2,1 C 91 % 1020,4 hPa 0,0 l/m 0,0 km/h (0 Bft) N 0 0 min 0,000 mm 46 W/m 0,8 C 2,1 C 0,0 km/h (0 Bft) 100 %
06.11.2017 09:00 2,3 C 2,1 C 2,3 C 91 % 1020,6 hPa 0,0 l/m 0,0 km/h (0 Bft) N 0 0 min 0,000 mm 65 W/m 1,0 C 2,3 C 0,0 km/h (0 Bft) 100 %
06.11.2017 09:10 2,5 C 2,3 C 2,5 C 91 % 1020,8 hPa 0,0 l/m 0,0 km/h (0 Bft) N 0 0 min 0,000 mm 76 W/m 1,2 C 2,5 C 0,0 km/h (0 Bft) 100 %
06.11.2017 09:20 3,1 C 2,5 C 3,1 C 91 % 1020,9 hPa 0,0 l/m 0,0 km/h (0 Bft) N 0 10 min 0,000 mm 211 W/m 1,8 C 3,1 C 0,0 km/h (0 Bft) 100 %
06.11.2017 09:40 4,2 C 2,5 C 4,2 C 91 % 1021,2 hPa 0,0 l/m 0,0 km/h (0 Bft) N-NW 340 20 min 0,000 mm 244 W/m 2,9 C 4,2 C 0,0 km/h (0 Bft) 100 %
06.11.2017 09:50 4,9 C 4,2 C 4,9 C 91 % 1021,3 hPa 0,0 l/m 0,0 km/h (0 Bft) N-NW 340 10 min 0,000 mm 264 W/m 3,6 C 4,9 C 0,0 km/h (0 Bft) 100 %
06.11.2017 10:00 5,7 C 4,9 C 5,7 C 91 % 1021,2 hPa 0,0 l/m 0,3 km/h (0 Bft) N-NW 339 10 min 0,076 mm 281 W/m 4,3 C 5,7 C 4,8 km/h (1 Bft) 100 %
06.11.2017 10:10 5,9 C 5,7 C 5,9 C 91 % 1021,4 hPa 0,0 l/m 0,9 km/h (0 Bft) N 5 10 min 0,000 mm 348 W/m 4,5 C 5,9 C 9,7 km/h (2 Bft) 100 %
06.11.2017 10:20 6,5 C 5,9 C 6,5 C 91 % 1021,4 hPa 0,0 l/m 2,4 km/h (1 Bft) N-NW 334 10 min 0,000 mm 316 W/m 5,1 C 6,5 C 9,7 km/h (2 Bft) 100 %
06.11.2017 10:30 6,7 C 6,5 C 6,7 C 90 % 1021,5 hPa 0,0 l/m 1,7 km/h (1 Bft) N-NW 331 0 min 0,000 mm 141 W/m 5,2 C 6,7 C 11,3 km/h (2 Bft) 99 %
06.11.2017 10:40 6,6 C 6,6 C 6,7 C 88 % 1021,6 hPa 0,0 l/m 1,4 km/h (1 Bft) N 351 0 min 0,000 mm 97 W/m 4,8 C 6,6 C 6,4 km/h (2 Bft) 97 %
06.11.2017 10:50 6,3 C 6,3 C 6,6 C 87 % 1021,7 hPa 0,0 l/m 0,4 km/h (0 Bft) N 351 0 min 0,000 mm 111 W/m 4,3 C 6,3 C 3,2 km/h (1 Bft) 98 %
06.11.2017 11:00 6,2 C 6,2 C 6,3 C 86 % 1021,8 hPa 0,0 l/m 1,1 km/h (1 Bft) N 351 10 min 0,102 mm 295 W/m 4,0 C 6,2 C 8,0 km/h (2 Bft) 97 %
06.11.2017 11:10 6,6 C 6,2 C 6,6 C 87 % 1021,9 hPa 0,0 l/m 0,4 km/h (0 Bft) N 355 10 min 0,000 mm 448 W/m 4,6 C 6,6 C 3,2 km/h (1 Bft) 98 %
06.11.2017 11:20 6,9 C 6,6 C 6,9 C 85 % 1021,8 hPa 0,0 l/m 0,7 km/h (0 Bft) N-NW 347 10 min 0,000 mm 283 W/m 4,6 C 6,9 C 4,8 km/h (1 Bft) 97 %
06.11.2017 11:30 7,1 C 6,9 C 7,1 C 85 % 1021,9 hPa 0,0 l/m 4,5 km/h (1 Bft) N-NW 327 0 min 0,000 mm 86 W/m 4,8 C 7,1 C 14,5 km/h (3 Bft) 98 %
06.11.2017 11:40 6,9 C 6,9 C 7,1 C 84 % 1021,9 hPa 0,0 l/m 2,8 km/h (1 Bft) N-NW 336 10 min 0,000 mm 179 W/m 4,4 C 6,9 C 8,0 km/h (2 Bft) 97 %
06.11.2017 11:50 6,8 C 6,8 C 6,9 C 85 % 1021,8 hPa 0,0 l/m 3,1 km/h (1 Bft) N 5 0 min 0,000 mm 118 W/m 4,5 C 6,8 C 9,7 km/h (2 Bft) 98 %
06.11.2017 12:00 6,8 C 6,8 C 6,8 C 84 % 1022,0 hPa 0,0 l/m 0,1 km/h (0 Bft) N 5 10 min 0,101 mm 294 W/m 4,3 C 6,8 C 1,6 km/h (1 Bft) 97 %
06.11.2017 12:10 6,9 C 6,8 C 6,9 C 85 % 1022,0 hPa 0,0 l/m 3,1 km/h (1 Bft) N-NO 15 0 min 0,000 mm 123 W/m 4,6 C 6,9 C 11,3 km/h (2 Bft) 98 %
06.11.2017 12:20 6,8 C 6,8 C 6,9 C 84 % 1022,1 hPa 0,0 l/m 2,7 km/h (1 Bft) N-NW 328 0 min 0,000 mm 135 W/m 4,3 C 6,8 C 8,0 km/h (2 Bft) 98 %
06.11.2017 12:30 6,8 C 6,8 C 6,8 C 84 % 1022,0 hPa 0,0 l/m 0,6 km/h (0 Bft) N-NW 336 0 min 0,000 mm 149 W/m 4,3 C 6,8 C 6,4 km/h (2 Bft) 91 %
06.11.2017 12:40 6,9 C 6,8 C 6,9 C 85 % 1021,8 hPa 0,0 l/m 3,2 km/h (1 Bft) N-NW 341 10 min 0,000 mm 171 W/m 4,6 C 6,9 C 11,3 km/h (2 Bft) 100 %
06.11.2017 12:50 7,1 C 6,9 C 7,1 C 84 % 1022,0 hPa 0,0 l/m 2,5 km/h (1 Bft) N-NW 345 10 min 0,000 mm 183 W/m 4,6 C 7,1 C 11,3 km/h (2 Bft) 100 %
06.11.2017 13:00 7,1 C 7,1 C 7,1 C 82 % 1022,0 hPa 0,0 l/m 0,7 km/h (0 Bft) N 355 10 min 0,077 mm 155 W/m 4,2 C 7,1 C 6,4 km/h (2 Bft) 100 %
06.11.2017 13:10 7,1 C 7,1 C 7,1 C 82 % 1021,9 hPa 0,0 l/m 0,5 km/h (0 Bft) N-NW 344 0 min 0,000 mm 128 W/m 4,2 C 7,1 C 6,4 km/h (2 Bft) 100 %
06.11.2017 13:20 7,1 C 7,1 C 7,2 C 81 % 1021,9 hPa 0,0 l/m 1,0 km/h (0 Bft) N-NW 336 0 min 0,000 mm 90 W/m 4,1 C 7,1 C 6,4 km/h (2 Bft) 100 %
06.11.2017 13:30 7,1 C 7,1 C 7,1 C 81 % 1021,9 hPa 0,0 l/m 0,1 km/h (0 Bft) NO 36 0 min 0,000 mm 98 W/m 4,1 C 7,1 C 4,8 km/h (1 Bft) 100 %
06.11.2017 13:40 6,9 C 6,9 C 7,1 C 82 % 1022,0 hPa 0,0 l/m 0,8 km/h (0 Bft) SO 140 0 min 0,000 mm 93 W/m 4,0 C 6,9 C 8,0 km/h (2 Bft) 100 %
06.11.2017 13:50 6,9 C 6,9 C 6,9 C 82 % 1022,1 hPa 0,0 l/m 0,2 km/h (0 Bft) N 360 0 min 0,000 mm 98 W/m 4,0 C 6,9 C 4,8 km/h (1 Bft) 91 %
06.11.2017 14:00 6,9 C 6,8 C 6,9 C 82 % 1022,0 hPa 0,0 l/m 0,0 km/h (0 Bft) N 360 0 min 0,050 mm 125 W/m 4,0 C 6,9 C 0,0 km/h (0 Bft) 100 %
06.11.2017 14:10 6,9 C 6,8 C 6,9 C 81 % 1022,1 hPa 0,0 l/m 0,0 km/h (0 Bft) N 360 0 min 0,000 mm 93 W/m 3,9 C 6,9 C 0,0 km/h (0 Bft) 100 %
06.11.2017 14:20 6,9 C 6,9 C 6,9 C 81 % 1022,2 hPa 0,0 l/m 0,0 km/h (0 Bft) N 9 0 min 0,000 mm 128 W/m 3,9 C 6,9 C 0,0 km/h (0 Bft) 100 %
06.11.2017 14:30 7,0 C 6,9 C 7,0 C 81 % 1022,2 hPa 0,0 l/m 0,0 km/h (0 Bft) N 360 0 min 0,000 mm 83 W/m 4,0 C 7,0 C 0,0 km/h (0 Bft) 100 %
06.11.2017 14:40 7,0 C 7,0 C 7,0 C 80 % 1022,2 hPa 0,0 l/m 0,0 km/h (0 Bft) NO 45 0 min 0,000 mm 84 W/m 3,8 C 7,0 C 1,6 km/h (1 Bft) 100 %
06.11.2017 14:50 7,0 C 7,0 C 7,1 C 80 % 1022,3 hPa 0,0 l/m 0,0 km/h (0 Bft) NO 44 0 min 0,000 mm 70 W/m 3,8 C 7,0 C 0,0 km/h (0 Bft) 100 %
06.11.2017 15:00 7,0 C 6,9 C 7,0 C 80 % 1022,3 hPa 0,0 l/m 0,0 km/h (0 Bft) NO 44 0 min 0,051 mm 39 W/m 3,8 C 7,0 C 0,0 km/h (0 Bft) 100 %
06.11.2017 15:10 6,9 C 6,9 C 7,0 C 81 % 1022,4 hPa 0,0 l/m 0,0 km/h (0 Bft) NO 44 0 min 0,000 mm 49 W/m 3,9 C 6,9 C 0,0 km/h (0 Bft) 97 %
06.11.2017 15:20 6,8 C 6,8 C 6,9 C 83 % 1022,5 hPa 0,0 l/m 0,0 km/h (0 Bft) NO 44 0 min 0,000 mm 65 W/m 4,1 C 6,8 C 0,0 km/h (0 Bft) 94 %
06.11.2017 15:30 6,8 C 6,8 C 6,8 C 82 % 1022,6 hPa 0,0 l/m 0,2 km/h (0 Bft) N-NO 21 0 min 0,000 mm 47 W/m 3,9 C 6,8 C 4,8 km/h (1 Bft) 100 %
06.11.2017 15:40 6,7 C 6,7 C 6,8 C 81 % 1022,7 hPa 0,0 l/m 0,0 km/h (0 Bft) N-NO 21 0 min 0,000 mm 37 W/m 3,7 C 6,7 C 1,6 km/h (1 Bft) 99 %
06.11.2017 15:50 6,6 C 6,6 C 6,7 C 81 % 1022,7 hPa 0,0 l/m 0,0 km/h (0 Bft) N-NO 21 0 min 0,000 mm 33 W/m 3,6 C 6,6 C 0,0 km/h (0 Bft) 99 %
06.11.2017 16:00 6,6 C 6,6 C 6,6 C 82 % 1022,7 hPa 0,0 l/m 0,0 km/h (0 Bft) N-NO 21 0 min 0,026 mm 26 W/m 3,8 C 6,6 C 0,0 km/h (0 Bft) 100 %
06.11.2017 16:10 6,5 C 6,5 C 6,6 C 82 % 1022,8 hPa 0,0 l/m 0,0 km/h (0 Bft) N-NO 21 0 min 0,000 mm 19 W/m 3,7 C 6,5 C 0,0 km/h (0 Bft) 100 %
06.11.2017 16:20 6,4 C 6,4 C 6,5 C 81 % 1022,9 hPa 0,0 l/m 0,0 km/h (0 Bft) N-NO 21 0 min 0,000 mm 16 W/m 3,4 C 6,4 C 0,0 km/h (0 Bft) 100 %
06.11.2017 16:30 6,3 C 6,3 C 6,4 C 83 % 1023,0 hPa 0,0 l/m 0,0 km/h (0 Bft) N-NO 21 0 min 0,000 mm 9 W/m 3,6 C 6,3 C 0,0 km/h (0 Bft) 100 %
06.11.2017 16:40 6,3 C 6,3 C 6,3 C 83 % 1023,0 hPa 0,0 l/m 0,0 km/h (0 Bft) N-NO 21 0 min 0,000 mm 9 W/m 3,6 C 6,3 C 0,0 km/h (0 Bft) 100 %
06.11.2017 16:50 6,1 C 6,1 C 6,3 C 83 % 1023,0 hPa 0,0 l/m 0,0 km/h (0 Bft) N-NO 21 0 min 0,000 mm 0 W/m 3,4 C 6,1 C 0,0 km/h (0 Bft) 99 %
06.11.2017 17:00 6,1 C 6,1 C 6,1 C 85 % 1023,0 hPa 0,0 l/m 0,0 km/h (0 Bft) N-NO 21 0 min 0,000 mm 0 W/m 3,8 C 6,1 C 0,0 km/h (0 Bft) 100 %
06.11.2017 17:10 6,0 C 5,9 C 6,1 C 85 % 1023,1 hPa 0,0 l/m 0,0 km/h (0 Bft) N-NO 21 0 min 0,000 mm 0 W/m 3,7 C 6,0 C 0,0 km/h (0 Bft) 100 %
06.11.2017 17:20 5,8 C 5,8 C 6,0 C 86 % 1023,4 hPa 0,0 l/m 0,0 km/h (0 Bft) N-NO 21 0 min 0,000 mm 0 W/m 3,6 C 5,8 C 0,0 km/h (0 Bft) 100 %
06.11.2017 17:30 5,7 C 5,7 C 5,8 C 87 % 1023,6 hPa 0,0 l/m 0,0 km/h (0 Bft) N-NO 22 0 min 0,000 mm 0 W/m 3,7 C 5,7 C 0,0 km/h (0 Bft) 99 %
06.11.2017 17:40 5,7 C 5,7 C 5,7 C 88 % 1023,6 hPa 0,0 l/m 0,0 km/h (0 Bft) N-NO 22 0 min 0,000 mm 0 W/m 3,9 C 5,7 C 0,0 km/h (0 Bft) 100 %
06.11.2017 17:50 5,6 C 5,6 C 5,7 C 87 % 1023,6 hPa 0,0 l/m 0,0 km/h (0 Bft) N-NO 22 0 min 0,000 mm 0 W/m 3,6 C 5,6 C 0,0 km/h (0 Bft) 100 %
06.11.2017 18:00 5,5 C 5,5 C 5,6 C 87 % 1023,7 hPa 0,0 l/m 0,0 km/h (0 Bft) N-NO 22 0 min 0,000 mm 0 W/m 3,5 C 5,5 C 0,0 km/h (0 Bft) 100 %
06.11.2017 18:10 5,4 C 5,4 C 5,5 C 86 % 1024,0 hPa 0,0 l/m 0,0 km/h (0 Bft) N-NO 22 0 min 0,000 mm 0 W/m 3,3 C 5,4 C 0,0 km/h (0 Bft) 100 %
06.11.2017 18:20 5,3 C 5,3 C 5,4 C 86 % 1024,1 hPa 0,0 l/m 0,0 km/h (0 Bft) N-NO 24 0 min 0,000 mm 0 W/m 3,2 C 5,3 C 1,6 km/h (1 Bft) 100 %
06.11.2017 18:30 5,3 C 5,3 C 5,4 C 86 % 1024,1 hPa 0,0 l/m 0,0 km/h (0 Bft) N-NO 24 0 min 0,000 mm 0 W/m 3,2 C 5,3 C 0,0 km/h (0 Bft) 100 %
06.11.2017 18:40 5,3 C 5,3 C 5,3 C 87 % 1024,1 hPa 0,0 l/m 0,0 km/h (0 Bft) N-NO 24 0 min 0,000 mm 0 W/m 3,3 C 5,3 C 0,0 km/h (0 Bft) 91 %
06.11.2017 18:50 5,3 C 5,3 C 5,3 C 88 % 1024,3 hPa 0,0 l/m 0,1 km/h (0 Bft) N-NO 22 0 min 0,000 mm 0 W/m 3,5 C 5,3 C 3,2 km/h (1 Bft) 100 %
06.11.2017 19:00 5,3 C 5,3 C 5,3 C 88 % 1024,1 hPa 0,0 l/m 0,0 km/h (0 Bft) N-NO 22 0 min 0,000 mm 0 W/m 3,5 C 5,3 C 1,6 km/h (1 Bft) 100 %
06.11.2017 19:10 5,3 C 5,3 C 5,3 C 89 % 1024,1 hPa 0,0 l/m 1,1 km/h (1 Bft) N-NO 19 0 min 0,000 mm 0 W/m 3,6 C 5,3 C 3,2 km/h (1 Bft) 100 %
06.11.2017 19:20 5,3 C 5,3 C 5,3 C 89 % 1024,1 hPa 0,0 l/m 0,1 km/h (0 Bft) N-NO 19 0 min 0,000 mm 0 W/m 3,6 C 5,3 C 1,6 km/h (1 Bft) 99 %
06.11.2017 19:30 5,2 C 5,2 C 5,3 C 88 % 1024,2 hPa 0,0 l/m 0,1 km/h (0 Bft) N-NO 19 0 min 0,000 mm 0 W/m 3,4 C 5,2 C 3,2 km/h (1 Bft) 100 %
06.11.2017 19:40 5,1 C 5,1 C 5,2 C 88 % 1024,2 hPa 0,0 l/m 0,0 km/h (0 Bft) N-NO 19 0 min 0,000 mm 0 W/m 3,3 C 5,1 C 0,0 km/h (0 Bft) 100 %
06.11.2017 19:50 5,1 C 5,1 C 5,1 C 88 % 1024,1 hPa 0,0 l/m 1,1 km/h (1 Bft) N-NW 348 0 min 0,000 mm 0 W/m 3,3 C 5,1 C 6,4 km/h (2 Bft) 100 %
06.11.2017 20:00 5,0 C 5,0 C 5,1 C 88 % 1024,0 hPa 0,0 l/m 2,0 km/h (1 Bft) N-NO 14 0 min 0,000 mm 0 W/m 3,2 C 5,0 C 9,7 km/h (2 Bft) 100 %
06.11.2017 20:10 4,9 C 4,9 C 5,0 C 87 % 1024,1 hPa 0,0 l/m 0,8 km/h (0 Bft) N-NO 18 0 min 0,000 mm 0 W/m 2,9 C 4,9 C 4,8 km/h (1 Bft) 100 %
06.11.2017 20:20 4,8 C 4,8 C 4,9 C 87 % 1024,0 hPa 0,0 l/m 0,6 km/h (0 Bft) N 360 0 min 0,000 mm 0 W/m 2,8 C 4,8 C 4,8 km/h (1 Bft) 100 %
06.11.2017 20:30 4,7 C 4,7 C 4,8 C 88 % 1024,0 hPa 0,0 l/m 0,1 km/h (0 Bft) N 360 0 min 0,000 mm 0 W/m 2,9 C 4,7 C 3,2 km/h (1 Bft) 100 %
06.11.2017 20:40 4,4 C 4,4 C 4,7 C 88 % 1023,9 hPa 0,0 l/m 0,0 km/h (0 Bft) N 360 0 min 0,000 mm 0 W/m 2,6 C 4,4 C 0,0 km/h (0 Bft) 100 %
06.11.2017 20:50 4,1 C 4,1 C 4,4 C 88 % 1023,9 hPa 0,0 l/m 0,0 km/h (0 Bft) N 360 0 min 0,000 mm 0 W/m 2,3 C 4,1 C 0,0 km/h (0 Bft) 100 %
06.11.2017 21:00 3,7 C 3,7 C 4,1 C 89 % 1023,9 hPa 0,0 l/m 0,0 km/h (0 Bft) N 5 0 min 0,000 mm 0 W/m 2,1 C 3,7 C 1,6 km/h (1 Bft) 100 %
06.11.2017 21:10 3,4 C 3,4 C 3,7 C 89 % 1024,0 hPa 0,0 l/m 0,0 km/h (0 Bft) N 0 0 min 0,000 mm 0 W/m 1,8 C 3,4 C 0,0 km/h (0 Bft) 100 %
06.11.2017 21:20 3,1 C 3,1 C 3,4 C 89 % 1023,9 hPa 0,0 l/m 0,0 km/h (0 Bft) N 0 0 min 0,000 mm 0 W/m 1,5 C 3,1 C 0,0 km/h (0 Bft) 100 %
06.11.2017 21:30 2,9 C 2,9 C 3,1 C 90 % 1024,0 hPa 0,0 l/m 0,0 km/h (0 Bft) N 0 0 min 0,000 mm 0 W/m 1,4 C 2,9 C 0,0 km/h (0 Bft) 100 %
06.11.2017 21:40 2,8 C 2,8 C 2,9 C 90 % 1023,9 hPa 0,0 l/m 0,0 km/h (0 Bft) N 0 0 min 0,000 mm 0 W/m 1,3 C 2,8 C 0,0 km/h (0 Bft) 100 %
06.11.2017 21:50 2,8 C 2,8 C 2,8 C 90 % 1023,9 hPa 0,0 l/m 0,0 km/h (0 Bft) N 0 0 min 0,000 mm 0 W/m 1,3 C 2,8 C 0,0 km/h (0 Bft) 100 %
06.11.2017 22:00 2,7 C 2,7 C 2,8 C 90 % 1023,9 hPa 0,0 l/m 0,0 km/h (0 Bft) N 0 0 min 0,000 mm 0 W/m 1,2 C 2,7 C 0,0 km/h (0 Bft) 90 %
06.11.2017 22:10 2,7 C 2,7 C 2,8 C 90 % 1024,0 hPa 0,0 l/m 0,0 km/h (0 Bft) N 0 0 min 0,000 mm 0 W/m 1,2 C 2,7 C 0,0 km/h (0 Bft) 99 %
06.11.2017 22:20 2,6 C 2,6 C 2,7 C 91 % 1023,9 hPa 0,0 l/m 0,0 km/h (0 Bft) N 0 0 min 0,000 mm 0 W/m 1,3 C 2,6 C 0,0 km/h (0 Bft) 100 %
06.11.2017 22:30 2,5 C 2,5 C 2,6 C 91 % 1023,8 hPa 0,0 l/m 0,0 km/h (0 Bft) N 0 0 min 0,000 mm 0 W/m 1,2 C 2,5 C 0,0 km/h (0 Bft) 100 %
06.11.2017 22:40 2,4 C 2,4 C 2,5 C 91 % 1023,7 hPa 0,0 l/m 0,0 km/h (0 Bft) N 0 0 min 0,000 mm 0 W/m 1,1 C 2,4 C 0,0 km/h (0 Bft) 100 %
06.11.2017 22:50 2,4 C 2,4 C 2,4 C 91 % 1023,7 hPa 0,0 l/m 0,0 km/h (0 Bft) N 0 0 min 0,000 mm 0 W/m 1,1 C 2,4 C 0,0 km/h (0 Bft) 100 %
06.11.2017 23:00 2,4 C 2,4 C 2,4 C 91 % 1023,7 hPa 0,0 l/m 0,0 km/h (0 Bft) N 0 0 min 0,000 mm 0 W/m 1,1 C 2,4 C 0,0 km/h (0 Bft) 100 %
06.11.2017 23:10 2,6 C 2,4 C 2,6 C 90 % 1023,6 hPa 0,0 l/m 0,0 km/h (0 Bft) N 0 0 min 0,000 mm 0 W/m 1,1 C 2,6 C 0,0 km/h (0 Bft) 100 %
06.11.2017 23:20 2,7 C 2,6 C 2,7 C 90 % 1023,5 hPa 0,0 l/m 0,0 km/h (0 Bft) N 360 0 min 0,000 mm 0 W/m 1,2 C 2,7 C 1,6 km/h (1 Bft) 99 %
06.11.2017 23:30 2,8 C 2,7 C 2,8 C 90 % 1023,5 hPa 0,0 l/m 0,0 km/h (0 Bft) N 0 0 min 0,000 mm 0 W/m 1,3 C 2,8 C 0,0 km/h (0 Bft) 100 %
06.11.2017 23:40 2,9 C 2,8 C 2,9 C 91 % 1023,4 hPa 0,0 l/m 1,6 km/h (1 Bft) N-NW 337 0 min 0,000 mm 0 W/m 1,6 C 2,9 C 9,7 km/h (2 Bft) 88 %
06.11.2017 23:50 3,0 C 2,9 C 3,0 C 91 % 1023,4 hPa 0,0 l/m 0,0 km/h (0 Bft) N-NW 337 0 min 0,000 mm 0 W/m 1,7 C 3,0 C 6,4 km/h (2 Bft) 98 %
_ Min-Zeit 07:30 07:30 07:30 14:40 00:00 - 00:00 - - - - - 07:20 07:30 00:00 00:40
Minimum _ 2,0 C 2,0 C 2,1 C 80 % 1015,4 hPa - 0,0 km/h (0 Bft) - - - - - 0,6 C 2,0 C 0,0 km/h (0 Bft) 88 %
_ Max-Zeit 13:20 13:00 13:20 04:00 18:50 00:00 11:30 - - 09:40 11:00 11:10 10:30 11:30 11:30 00:00
Maximum _ 7,2 C 7,1 C 7,2 C 91 % 1024,3 hPa 0,0 l/m 4,5 km/h
N-NW (1 Bft)
- - 20 min 0,102 mm 448 W/m 5,2 C 7,1 C 14,5 km/h
NW (3 Bft)
100 %
Durchschnitt _ 4,7 C 4,6 C 4,7 C 88 % 1020,9 hPa #0,0 l/m 0,4 km/h (0 Bft) N-NW - #2:30 h #0,483 mm 117 W/m 2,8 C 4,7 C 2,1 km/h (1 Bft) 99 %
PRIVATE WETTERSTATION BILLIGHEIM-ALLFELD - www.neckar-odenwald-wetter.de - Holger Sonntag